createdAt,value
2023-03-06T00:01:17.917Z,99059.53
2023-03-06T00:03:45.158Z,99051.13
2023-03-06T00:06:11.697Z,99045.94
2023-03-06T00:08:38.229Z,99050.97
2023-03-06T00:11:05.014Z,99050.97
2023-03-06T00:13:32.189Z,99045.94
2023-03-06T00:16:00.944Z,99043.38
2023-03-06T00:18:27.971Z,99049.66
2023-03-06T00:20:55.046Z,99043.53
2023-03-06T00:23:21.779Z,99043.03
2023-03-06T00:25:48.311Z,99046.28
2023-03-06T00:28:15.851Z,99040.94
2023-03-06T00:30:43.338Z,99034.94
2023-03-06T00:33:10.714Z,99032.19
2023-03-06T00:35:39.161Z,99029.28
2023-03-06T00:38:05.721Z,99026.22
2023-03-06T00:40:32.222Z,99026.38
2023-03-06T00:42:58.942Z,99023.78
2023-03-06T00:45:25.639Z,99023.47
2023-03-06T00:47:52.161Z,99016.69
2023-03-06T00:50:18.684Z,99011.81
2023-03-06T00:52:45.605Z,99023.31
2023-03-06T00:55:13.207Z,99018.63
2023-03-06T00:57:39.851Z,99009.56
2023-03-06T01:00:06.912Z,99009.56
2023-03-06T01:02:33.566Z,99004.88
2023-03-06T01:05:00.638Z,99001.97
2023-03-06T01:07:33.356Z,99001.50
2023-03-06T01:10:00.134Z,98994.53
2023-03-06T01:12:26.809Z,98992.44
2023-03-06T01:14:53.420Z,98988.22
2023-03-06T01:17:19.896Z,98990.34
2023-03-06T01:19:46.438Z,98994.81
2023-03-06T01:22:12.986Z,98984.81
2023-03-06T01:24:39.544Z,98987.72
2023-03-06T01:27:06.255Z,98977.84
2023-03-06T01:29:32.788Z,98979.47
2023-03-06T01:31:59.459Z,98983.19
2023-03-06T01:34:26.252Z,98973.16
2023-03-06T01:36:52.672Z,98982.06
2023-03-06T01:39:19.128Z,98976.88
2023-03-06T01:41:45.563Z,98965.72
2023-03-06T01:44:13.755Z,98965.56
2023-03-06T01:46:42.339Z,98968.44
2023-03-06T01:49:14.024Z,98961.47
2023-03-06T01:51:54.357Z,98965.03
2023-03-06T01:54:34.543Z,98957.91
2023-03-06T01:57:22.654Z,98965.50
2023-03-06T01:59:55.422Z,98958.53
2023-03-06T02:02:22.177Z,98958.69
2023-03-06T02:04:48.995Z,98950.94
2023-03-06T02:07:17.013Z,98949.97
2023-03-06T02:09:43.685Z,98951.44
2023-03-06T02:12:17.209Z,98953.22
2023-03-06T02:14:44.358Z,98950.31
2023-03-06T02:17:13.503Z,98947.91
2023-03-06T02:20:00.833Z,98950.66
2023-03-06T02:22:34.989Z,98947.09
2023-03-06T02:25:26.792Z,98941.50
2023-03-06T02:27:54.088Z,98941.31
2023-03-06T02:30:21.325Z,98934.22
2023-03-06T02:32:48.097Z,98937.94
2023-03-06T02:35:20.314Z,98931.63
2023-03-06T02:37:48.196Z,98928.56
2023-03-06T02:40:18.010Z,98936.16
2023-03-06T02:42:48.741Z,98929.53
2023-03-06T02:45:23.109Z,98924.84
2023-03-06T02:47:50.966Z,98931.97
2023-03-06T02:50:19.256Z,98930.19
2023-03-06T02:52:48.038Z,98923.56
2023-03-06T02:55:16.292Z,98921.63
2023-03-06T02:57:44.898Z,98914.84
2023-03-06T03:00:13.605Z,98909.97
2023-03-06T03:02:42.458Z,98911.09
2023-03-06T03:05:11.630Z,98908.97
2023-03-06T03:07:40.228Z,98909.63
2023-03-06T03:10:09.474Z,98905.91
2023-03-06T03:12:39.065Z,98907.19
2023-03-06T03:15:07.953Z,98906.22
2023-03-06T03:17:41.954Z,98904.91
2023-03-06T03:20:14.829Z,98900.72
2023-03-06T03:22:44.140Z,98897.91
2023-03-06T03:25:11.598Z,98893.88
2023-03-06T03:27:38.203Z,98892.88
2023-03-06T03:30:05.260Z,98889.97
2023-03-06T03:32:31.825Z,98891.56
2023-03-06T03:34:58.469Z,98885.75
2023-03-06T03:37:25.343Z,98879.13
2023-03-06T03:39:51.844Z,98879.63
2023-03-06T03:42:18.351Z,98876.88
2023-03-06T03:44:44.934Z,98880.75
2023-03-06T03:47:11.492Z,98877.84
2023-03-06T03:49:38.991Z,98874.91
2023-03-06T03:52:05.539Z,98879.75
2023-03-06T03:54:32.019Z,98870.06
2023-03-06T03:56:58.451Z,98857.16
2023-03-06T03:59:25.535Z,98858.72
2023-03-06T04:01:52.478Z,98855.72
2023-03-06T04:04:19.594Z,98850.19
2023-03-06T04:06:46.115Z,98849.84
2023-03-06T04:09:12.646Z,98849.03
2023-03-06T04:11:39.233Z,98846.44
2023-03-06T04:14:08.178Z,98840.63
2023-03-06T04:16:34.636Z,98839.31
2023-03-06T04:19:01.390Z,98841.47
2023-03-06T04:21:28.264Z,98835.00
2023-03-06T04:23:54.737Z,98836.28
2023-03-06T04:26:21.905Z,98832.97
2023-03-06T04:28:48.541Z,98826.31
2023-03-06T04:31:15.243Z,98826.34
2023-03-06T04:33:41.833Z,98829.91
2023-03-06T04:36:09.808Z,98829.59
2023-03-06T04:38:36.366Z,98828.47
2023-03-06T04:41:03.272Z,98824.47
2023-03-06T04:43:29.991Z,98823.00
2023-03-06T04:45:58.157Z,98828.31
2023-03-06T04:48:24.719Z,98830.75
2023-03-06T04:50:51.268Z,98820.09
2023-03-06T04:53:19.608Z,98824.59
2023-03-06T04:55:46.459Z,98819.44
2023-03-06T05:11:30.291Z,98809.28
2023-03-06T05:13:56.781Z,98801.38
2023-03-06T05:16:23.617Z,98804.59
2023-03-06T05:18:50.771Z,98810.38
2023-03-06T05:21:17.386Z,98801.13
2023-03-06T05:23:44.252Z,98804.84
2023-03-06T05:26:12.589Z,98805.66
2023-03-06T05:28:39.684Z,98797.75
2023-03-06T05:31:07.255Z,98800.00
2023-03-06T05:33:35.000Z,98799.16
2023-03-06T05:36:03.126Z,98791.91
2023-03-06T05:38:29.575Z,98794.31
2023-03-06T05:40:56.117Z,98792.03
2023-03-06T05:43:22.645Z,98791.06
2023-03-06T05:45:50.600Z,98790.56
2023-03-06T05:48:17.744Z,98791.41
2023-03-06T05:50:44.505Z,98789.16
2023-03-06T05:53:11.045Z,98787.56
2023-03-06T05:55:37.580Z,98785.66
2023-03-06T05:58:04.098Z,98785.69
2023-03-06T06:00:30.624Z,98780.00
2023-03-06T06:03:00.468Z,98780.88
2023-03-06T06:05:27.561Z,98782.50
2023-03-06T06:07:54.065Z,98788.00
2023-03-06T06:10:20.628Z,98794.78
2023-03-06T06:12:47.133Z,98790.41
2023-03-06T06:15:15.355Z,98789.13
2023-03-06T06:17:41.869Z,98790.91
2023-03-06T06:20:11.398Z,98803.66
2023-03-06T06:22:38.282Z,98794.16
2023-03-06T06:25:06.337Z,98787.56
2023-03-06T06:27:32.903Z,98795.13
2023-03-06T06:29:59.451Z,98786.25
2023-03-06T06:32:25.989Z,98791.91
2023-03-06T06:34:52.506Z,98790.78
2023-03-06T06:37:18.990Z,98790.28
2023-03-06T06:39:45.494Z,98787.84
2023-03-06T06:42:29.906Z,98791.88
2023-03-06T06:44:58.172Z,98790.44
2023-03-06T06:47:25.733Z,98792.84
2023-03-06T06:49:54.136Z,98790.41
2023-03-06T06:52:21.419Z,98794.91
2023-03-06T06:54:48.016Z,98789.25
2023-03-06T06:57:15.141Z,98790.03
2023-03-06T06:59:41.768Z,98787.13
2023-03-06T07:02:11.953Z,98796.53
2023-03-06T07:04:44.322Z,98784.38
2023-03-06T07:07:16.109Z,98780.81
2023-03-06T07:09:42.604Z,98780.16
2023-03-06T07:12:09.393Z,98777.31
2023-03-06T07:14:36.353Z,98776.09
2023-03-06T07:17:02.860Z,98776.75
2023-03-06T07:19:29.415Z,98770.63
2023-03-06T07:21:55.960Z,98767.81
2023-03-06T07:24:22.573Z,98770.06
2023-03-06T07:26:49.271Z,98769.31
2023-03-06T07:29:16.109Z,98777.16
2023-03-06T07:31:42.581Z,98775.56
2023-03-06T07:34:12.848Z,98761.34
2023-03-06T07:36:40.566Z,98763.63
2023-03-06T07:39:08.154Z,98763.84
2023-03-06T07:41:34.977Z,98757.00
2023-03-06T07:44:01.635Z,98754.59
2023-03-06T07:46:28.587Z,98758.56
2023-03-06T07:48:55.631Z,98764.31
2023-03-06T07:51:22.909Z,98757.97
2023-03-06T07:53:49.955Z,98765.22
2023-03-06T07:56:16.682Z,98762.13
2023-03-06T07:58:44.871Z,98765.59
2023-03-06T08:01:15.122Z,98765.25
2023-03-06T08:03:41.910Z,98759.06
2023-03-06T08:06:19.822Z,98761.38
2023-03-06T08:08:47.337Z,98770.22
2023-03-06T08:11:15.774Z,98760.59
2023-03-06T08:13:42.866Z,98758.06
2023-03-06T08:16:10.134Z,98766.78
2023-03-06T08:18:39.584Z,98767.72
2023-03-06T08:21:12.431Z,98771.53
2023-03-06T08:23:39.185Z,98768.69
2023-03-06T08:26:08.124Z,98767.38
2023-03-06T08:28:34.951Z,98768.34
2023-03-06T08:31:13.314Z,98771.72
2023-03-06T08:33:40.782Z,98776.09
2023-03-06T08:36:07.585Z,98774.38
2023-03-06T08:38:34.071Z,98776.91
2023-03-06T08:41:00.636Z,98779.34
2023-03-06T08:43:27.229Z,98775.63
2023-03-06T08:45:57.690Z,98775.19
2023-03-06T08:48:24.831Z,98778.69
2023-03-06T08:50:52.268Z,98777.06
2023-03-06T08:53:18.825Z,98772.72
2023-03-06T08:55:45.556Z,98779.50
2023-03-06T08:58:12.144Z,98780.50
2023-03-06T09:00:39.071Z,98777.63
2023-03-06T09:03:06.163Z,98781.41
2023-03-06T09:05:32.792Z,98774.16
2023-03-06T09:07:59.264Z,98777.84
2023-03-06T09:10:26.441Z,98781.53
2023-03-06T09:12:55.028Z,98779.16
2023-03-06T09:15:22.856Z,98781.84
2023-03-06T09:17:50.846Z,98776.63
2023-03-06T09:20:18.502Z,98779.06
2023-03-06T09:22:45.710Z,98777.84
2023-03-06T09:25:20.254Z,98781.81
2023-03-06T09:27:55.477Z,98775.78
2023-03-06T09:30:28.632Z,98770.94
2023-03-06T09:32:55.141Z,98773.53
2023-03-06T09:35:21.691Z,98769.16
2023-03-06T09:37:48.087Z,98762.84
2023-03-06T09:40:23.722Z,98759.44
2023-03-06T09:42:50.243Z,98761.63
2023-03-06T09:45:17.207Z,98753.94
2023-03-06T09:47:48.016Z,98755.41
2023-03-06T09:50:58.870Z,98755.22
2023-03-06T09:53:47.790Z,98749.03
2023-03-06T09:56:22.668Z,98749.72
2023-03-06T09:58:53.039Z,98741.97
2023-03-06T10:01:32.980Z,98741.22
2023-03-06T10:04:37.600Z,98742.53
2023-03-06T10:07:11.849Z,98734.84
2023-03-06T10:09:57.824Z,98756.00
2023-03-06T10:12:25.773Z,98740.59
2023-03-06T10:15:00.837Z,98741.63
2023-03-06T10:17:41.773Z,98738.94
2023-03-06T10:20:22.402Z,98735.75
2023-03-06T10:23:01.323Z,98733.38
2023-03-06T10:25:38.909Z,98739.06
2023-03-06T10:28:16.687Z,98738.91
2023-03-06T10:30:51.312Z,98747.53
2023-03-06T10:33:33.117Z,98747.22
2023-03-06T10:35:59.976Z,98749.00
2023-03-06T10:38:38.162Z,98745.72
2023-03-06T10:41:10.685Z,98753.34
2023-03-06T10:43:42.274Z,98747.41
2023-03-06T10:46:11.460Z,98741.44
2023-03-06T10:48:41.685Z,98740.66
2023-03-06T10:51:19.988Z,98742.75
2023-03-06T10:53:55.113Z,98742.38
2023-03-06T10:56:34.842Z,98735.22
2023-03-06T10:59:26.528Z,98742.53
2023-03-06T11:01:55.405Z,98733.88
2023-03-06T11:04:25.177Z,98737.44
2023-03-06T11:07:23.691Z,98730.69
2023-03-06T11:10:12.166Z,98729.22
2023-03-06T11:12:40.707Z,98732.75
2023-03-06T11:15:07.368Z,98729.66
2023-03-06T11:17:42.165Z,98739.91
2023-03-06T11:20:14.782Z,98742.06
2023-03-06T11:22:41.720Z,98743.41
2023-03-06T11:25:18.999Z,98736.63
2023-03-06T11:27:47.368Z,98732.44
2023-03-06T11:30:41.802Z,98724.94
2023-03-06T11:33:18.091Z,98729.56
2023-03-06T11:36:09.078Z,98720.66
2023-03-06T11:38:51.972Z,98721.75
2023-03-06T11:41:38.771Z,98713.72
2023-03-06T11:44:13.853Z,98716.22
2023-03-06T11:46:44.502Z,98706.31
2023-03-06T11:49:20.621Z,98702.44
2023-03-06T11:51:59.114Z,98701.56
2023-03-06T11:54:25.943Z,98704.44
2023-03-06T11:57:02.795Z,98702.84
2023-03-06T11:59:56.846Z,98699.44
2023-03-06T12:02:33.455Z,98695.75
2023-03-06T12:05:22.794Z,98693.91
2023-03-06T12:07:57.701Z,98685.78
2023-03-06T12:10:31.475Z,98682.75
2023-03-06T12:13:27.330Z,98676.06
2023-03-06T12:16:02.299Z,98675.09
2023-03-06T12:18:54.806Z,98675.59
2023-03-06T12:21:31.027Z,98669.59
2023-03-06T12:24:15.816Z,98671.31
2023-03-06T12:27:25.505Z,98666.84
2023-03-06T12:29:56.411Z,98666.88
2023-03-06T12:32:38.339Z,98664.25
2023-03-06T12:35:35.802Z,98662.50
2023-03-06T12:38:26.837Z,98665.09
2023-03-06T12:41:12.997Z,98662.25
2023-03-06T12:43:48.685Z,98655.72
2023-03-06T12:46:25.759Z,98652.50
2023-03-06T12:49:31.901Z,98657.25
2023-03-06T12:51:59.923Z,98654.28
2023-03-06T12:54:29.462Z,98660.19
2023-03-06T12:56:58.167Z,98645.81
2023-03-06T12:59:44.327Z,98653.91
2023-03-06T13:02:14.199Z,98647.84
2023-03-06T13:05:00.616Z,98645.97
2023-03-06T13:07:46.079Z,98659.16
2023-03-06T13:10:21.583Z,98652.97
2023-03-06T13:13:01.007Z,98659.06
2023-03-06T13:15:39.177Z,98657.81
2023-03-06T13:18:23.933Z,98650.13
2023-03-06T13:20:54.603Z,98656.16
2023-03-06T13:23:30.189Z,98653.75
2023-03-06T13:25:58.254Z,98653.38
2023-03-06T13:28:46.104Z,98661.22
2023-03-06T13:31:26.563Z,98661.94
2023-03-06T13:33:59.353Z,98656.06
2023-03-06T13:36:29.677Z,98654.09
2023-03-06T13:39:12.028Z,98656.25
2023-03-06T13:41:38.779Z,98643.28
2023-03-06T13:44:20.991Z,98643.25
2023-03-06T13:47:05.994Z,98633.41
2023-03-06T13:49:33.461Z,98626.72
2023-03-06T13:52:09.573Z,98634.91
2023-03-06T13:54:58.088Z,98631.31
2023-03-06T13:57:46.430Z,98628.22
2023-03-06T14:00:32.653Z,98621.47
2023-03-06T14:03:42.340Z,98626.34
2023-03-06T14:06:34.100Z,98618.97
2023-03-06T14:09:05.403Z,98627.50
2023-03-06T14:11:32.989Z,98632.25
2023-03-06T14:13:59.927Z,98619.28
2023-03-06T14:16:32.672Z,98627.59
2023-03-06T14:19:04.452Z,98621.19
2023-03-06T14:21:38.603Z,98618.19
2023-03-06T14:24:05.430Z,98627.50
2023-03-06T14:26:33.501Z,98630.44
2023-03-06T14:29:01.900Z,98628.06
2023-03-06T14:31:42.820Z,98633.31
2023-03-06T14:34:21.585Z,98627.97
2023-03-06T14:36:50.576Z,98626.22
2023-03-06T14:39:27.477Z,98633.19
2023-03-06T14:42:16.731Z,98630.09
2023-03-06T14:44:43.277Z,98625.78
2023-03-06T14:47:28.497Z,98619.28
2023-03-06T14:50:25.873Z,98613.91
2023-03-06T14:53:04.288Z,98621.03
2023-03-06T14:55:33.078Z,98615.69
2023-03-06T14:58:11.898Z,98619.53
2023-03-06T15:00:43.524Z,98619.84
2023-03-06T15:03:24.604Z,98609.69
2023-03-06T15:05:51.996Z,98616.31
2023-03-06T15:08:22.221Z,98615.97
2023-03-06T15:11:00.076Z,98620.38
2023-03-06T15:13:29.739Z,98614.69
2023-03-06T15:16:08.673Z,98617.91
2023-03-06T15:18:39.009Z,98619.63
2023-03-06T15:21:25.162Z,98621.41
2023-03-06T15:23:53.968Z,98612.16
2023-03-06T15:26:23.980Z,98610.22
2023-03-06T15:29:09.922Z,98612.38
2023-03-06T15:31:38.852Z,98618.03
2023-03-06T15:34:11.422Z,98603.47
2023-03-06T15:36:42.430Z,98604.13
2023-03-06T15:39:27.321Z,98607.41
2023-03-06T15:41:58.226Z,98601.03
2023-03-06T15:44:25.089Z,98601.16
2023-03-06T15:46:56.312Z,98616.88
2023-03-06T15:49:26.077Z,98618.97
2023-03-06T15:51:52.712Z,98629.78
2023-03-06T15:54:19.234Z,98635.22
2023-03-06T15:56:47.245Z,98636.22
2023-03-06T15:59:25.252Z,98637.00
2023-03-06T16:01:52.628Z,98650.34
2023-03-06T16:04:19.885Z,98647.44
2023-03-06T16:06:46.434Z,98652.69
2023-03-06T16:09:13.828Z,98658.59
2023-03-06T16:11:44.774Z,98656.25
2023-03-06T16:14:21.351Z,98651.84
2023-03-06T16:16:48.590Z,98656.38
2023-03-06T16:19:27.762Z,98657.69
2023-03-06T16:21:56.266Z,98656.81
2023-03-06T16:24:23.147Z,98651.19
2023-03-06T16:26:51.400Z,98658.81
2023-03-06T16:29:23.965Z,98659.50
2023-03-06T16:31:51.026Z,98659.66
2023-03-06T16:34:19.824Z,98657.53
2023-03-06T16:36:47.963Z,98663.97
2023-03-06T16:39:20.129Z,98662.22
2023-03-06T16:41:47.145Z,98664.19
2023-03-06T16:44:13.727Z,98658.09
2023-03-06T16:46:42.794Z,98651.28
2023-03-06T16:49:17.563Z,98656.16
2023-03-06T16:51:45.100Z,98657.31
2023-03-06T16:54:12.176Z,98640.31
2023-03-06T16:56:38.617Z,98653.53
2023-03-06T16:59:05.243Z,98648.44
2023-03-06T17:01:31.773Z,98644.84
2023-03-06T17:03:59.047Z,98642.75
2023-03-06T17:06:25.639Z,98645.31
2023-03-06T17:08:52.228Z,98643.06
2023-03-06T17:11:20.291Z,98647.63
2023-03-06T17:13:47.538Z,98650.03
2023-03-06T17:16:18.042Z,98651.94
2023-03-06T17:18:45.688Z,98658.41
2023-03-06T17:21:15.617Z,98649.88
2023-03-06T17:23:42.921Z,98660.69
2023-03-06T17:26:19.086Z,98660.47
2023-03-06T17:28:46.543Z,98664.72
2023-03-06T17:31:16.007Z,98664.06
2023-03-06T17:33:42.802Z,98671.00
2023-03-06T17:36:10.030Z,98673.59
2023-03-06T17:38:36.931Z,98675.19
2023-03-06T17:41:07.491Z,98681.38
2023-03-06T17:43:34.180Z,98674.91
2023-03-06T17:46:05.183Z,98677.53
2023-03-06T17:48:31.872Z,98684.16
2023-03-06T17:50:58.728Z,98686.41
2023-03-06T17:53:25.539Z,98696.88
2023-03-06T17:55:52.377Z,98693.63
2023-03-06T17:58:18.917Z,98701.00
2023-03-06T18:00:45.891Z,98699.50
2023-03-06T18:03:12.733Z,98696.28
2023-03-06T18:05:39.282Z,98698.56
2023-03-06T18:08:08.285Z,98691.59
2023-03-06T18:10:34.870Z,98695.78
2023-03-06T18:13:01.385Z,98692.06
2023-03-06T18:15:28.012Z,98697.38
2023-03-06T18:17:56.629Z,98697.03
2023-03-06T18:20:23.103Z,98697.38
2023-03-06T18:22:49.575Z,98700.25
2023-03-06T18:25:16.215Z,98690.88
2023-03-06T18:27:42.787Z,98697.50
2023-03-06T18:30:10.056Z,98696.03
2023-03-06T18:32:36.522Z,98704.94
2023-03-06T18:35:03.046Z,98699.94
2023-03-06T18:37:30.393Z,98702.56
2023-03-06T18:39:56.935Z,98708.69
2023-03-06T18:42:24.635Z,98708.22
2023-03-06T18:44:51.100Z,98702.25
2023-03-06T18:47:17.619Z,98704.53
2023-03-06T18:49:45.948Z,98714.75
2023-03-06T18:52:12.889Z,98703.91
2023-03-06T18:54:39.512Z,98704.25
2023-03-06T18:57:06.143Z,98703.91
2023-03-06T18:59:32.541Z,98705.84
2023-03-06T19:01:59.288Z,98713.09
2023-03-06T19:04:26.815Z,98709.56
2023-03-06T19:06:54.604Z,98709.06
2023-03-06T19:09:21.658Z,98706.31
2023-03-06T19:11:48.743Z,98705.38
2023-03-06T19:14:16.347Z,98708.63
2023-03-06T19:16:42.903Z,98712.69
2023-03-06T19:19:09.477Z,98714.47
2023-03-06T19:21:35.893Z,98707.34
2023-03-06T19:24:03.108Z,98704.13
2023-03-06T19:26:29.658Z,98703.31
2023-03-06T19:28:56.374Z,98703.16
2023-03-06T19:31:25.776Z,98709.31
2023-03-06T19:33:53.658Z,98709.97
2023-03-06T19:36:23.650Z,98705.44
2023-03-06T19:38:54.248Z,98698.00
2023-03-06T19:41:20.986Z,98696.72
2023-03-06T19:43:52.300Z,98694.97
2023-03-06T19:46:20.091Z,98693.69
2023-03-06T19:48:47.247Z,98689.16
2023-03-06T19:51:13.880Z,98699.50
2023-03-06T19:53:40.720Z,98698.69
2023-03-06T19:56:10.027Z,98700.16
2023-03-06T19:58:36.716Z,98700.97
2023-03-06T20:01:08.515Z,98701.94
2023-03-06T20:03:35.286Z,98707.59
2023-03-06T20:06:02.882Z,98700.81
2023-03-06T20:08:29.454Z,98707.78
2023-03-06T20:10:56.059Z,98703.75
2023-03-06T20:13:22.729Z,98703.59
2023-03-06T20:15:49.268Z,98708.94
2023-03-06T20:18:15.852Z,98699.88
2023-03-06T20:20:42.338Z,98698.28
2023-03-06T20:23:08.923Z,98703.13
2023-03-06T20:25:36.318Z,98694.88
2023-03-06T20:28:03.553Z,98693.59
2023-03-06T20:30:37.706Z,98693.13
2023-03-06T20:33:05.277Z,98689.72
2023-03-06T20:35:31.913Z,98690.88
2023-03-06T20:37:59.760Z,98695.66
2023-03-06T20:40:26.548Z,98690.97
2023-03-06T20:42:53.810Z,98693.56
2023-03-06T20:45:20.391Z,98699.03
2023-03-06T20:47:47.265Z,98692.88
2023-03-06T20:50:15.351Z,98688.69
2023-03-06T20:52:41.947Z,98689.66
2023-03-06T20:55:08.934Z,98685.28
2023-03-06T20:57:35.552Z,98690.94
2023-03-06T21:00:02.386Z,98678.69
2023-03-06T21:02:30.157Z,98677.25
2023-03-06T21:04:56.639Z,98676.78
2023-03-06T21:07:23.161Z,98680.81
2023-03-06T21:09:49.825Z,98674.22
2023-03-06T21:12:16.441Z,98668.09
2023-03-06T21:14:43.083Z,98667.59
2023-03-06T21:17:09.675Z,98667.00
2023-03-06T21:19:36.844Z,98661.19
2023-03-06T21:22:03.500Z,98655.53
2023-03-06T21:24:30.034Z,98662.16
2023-03-06T21:26:56.563Z,98652.47
2023-03-06T21:29:23.021Z,98659.72
2023-03-06T21:31:49.654Z,98650.84
2023-03-06T21:34:16.332Z,98648.72
2023-03-06T21:36:43.531Z,98641.81
2023-03-06T21:39:10.261Z,98649.06
2023-03-06T21:41:38.149Z,98651.47
2023-03-06T21:44:05.808Z,98647.16
2023-03-06T21:46:32.813Z,98643.59
2023-03-06T21:48:59.799Z,98633.56
2023-03-06T21:51:27.138Z,98640.66
2023-03-06T21:53:54.368Z,98639.38
2023-03-06T21:56:22.879Z,98639.47
2023-03-06T21:58:49.386Z,98640.66
2023-03-06T22:01:18.787Z,98630.19
2023-03-06T22:03:46.102Z,98636.41
2023-03-06T22:06:15.189Z,98633.66
2023-03-06T22:08:42.463Z,98640.94
2023-03-06T22:11:14.518Z,98633.00
2023-03-06T22:13:42.371Z,98633.81
2023-03-06T22:16:09.395Z,98640.91
2023-03-06T22:18:36.398Z,98623.16
2023-03-06T22:21:09.325Z,98631.72
2023-03-06T22:23:36.042Z,98622.41
2023-03-06T22:26:11.241Z,98617.28
2023-03-06T22:28:38.030Z,98618.19
2023-03-06T22:31:12.176Z,98609.38
2023-03-06T22:33:38.690Z,98610.78
2023-03-06T22:36:11.065Z,98608.41
2023-03-06T22:38:39.705Z,98607.13
2023-03-06T22:41:06.603Z,98608.84
2023-03-06T22:43:33.496Z,98600.00
2023-03-06T22:46:02.022Z,98598.88
2023-03-06T22:48:28.596Z,98606.16
2023-03-06T22:50:55.206Z,98599.84
2023-03-06T22:53:21.708Z,98606.81
2023-03-06T22:55:48.132Z,98606.66
2023-03-06T22:58:14.641Z,98604.81
2023-03-06T23:00:41.399Z,98607.41
2023-03-06T23:03:08.223Z,98610.19
2023-03-06T23:05:34.763Z,98602.94
2023-03-06T23:08:01.321Z,98598.09
2023-03-06T23:10:27.797Z,98599.56
2023-03-06T23:12:54.400Z,98594.06
2023-03-06T23:15:20.897Z,98589.56
2023-03-06T23:17:47.504Z,98586.00
2023-03-06T23:20:14.584Z,98588.75
2023-03-06T23:22:41.164Z,98578.41
2023-03-06T23:25:08.175Z,98576.63
2023-03-06T23:27:35.996Z,98577.59
2023-03-06T23:30:04.530Z,98575.50
2023-03-06T23:32:33.605Z,98571.47
2023-03-06T23:35:00.372Z,98573.53
2023-03-06T23:37:26.822Z,98571.13
2023-03-06T23:39:53.282Z,98564.47
2023-03-06T23:42:20.017Z,98559.16
2023-03-06T23:44:46.768Z,98559.66
2023-03-06T23:47:13.168Z,98556.91
2023-03-06T23:49:40.075Z,98559.16
2023-03-06T23:52:06.628Z,98551.28
2023-03-06T23:54:34.303Z,98556.09
2023-03-06T23:57:01.049Z,98551.09
2023-03-06T23:59:27.761Z,98546.59
